sensor_id;sensor_type;location;lat;lon;timestamp;P1;durP1;ratioP1;P2;durP2;ratioP2
48897;SDS011;34713;50.038;20.000;2023-09-19T00:01:34;27.10;;;16.60;;
48897;SDS011;34713;50.038;20.000;2023-09-19T00:22:47;26.40;;;17.80;;
48897;SDS011;34713;50.038;20.000;2023-09-19T00:25:50;21.50;;;16.70;;
48897;SDS011;34713;50.038;20.000;2023-09-19T00:28:59;17.90;;;15.50;;
48897;SDS011;34713;50.038;20.000;2023-09-19T00:35:22;18.90;;;16.10;;
48897;SDS011;34713;50.038;20.000;2023-09-19T00:38:50;23.20;;;16.70;;
48897;SDS011;34713;50.038;20.000;2023-09-19T00:41:57;19.60;;;16.40;;
48897;SDS011;34713;50.038;20.000;2023-09-19T00:44:51;17.50;;;15.20;;
48897;SDS011;34713;50.038;20.000;2023-09-19T00:47:20;22.70;;;16.00;;
48897;SDS011;34713;50.038;20.000;2023-09-19T00:53:20;21.40;;;16.10;;
48897;SDS011;34713;50.038;20.000;2023-09-19T00:59:52;19.50;;;14.60;;
48897;SDS011;34713;50.038;20.000;2023-09-19T01:09:07;19.40;;;14.40;;
48897;SDS011;34713;50.038;20.000;2023-09-19T01:34:52;17.80;;;10.00;;
48897;SDS011;34713;50.038;20.000;2023-09-19T01:37:44;15.30;;;12.00;;
48897;SDS011;34713;50.038;20.000;2023-09-19T01:40:31;15.80;;;11.30;;
48897;SDS011;34713;50.038;20.000;2023-09-19T01:46:35;16.60;;;11.70;;
48897;SDS011;34713;50.038;20.000;2023-09-19T01:52:38;14.90;;;9.20;;
48897;SDS011;34713;50.038;20.000;2023-09-19T01:55:35;13.20;;;9.60;;
48897;SDS011;34713;50.038;20.000;2023-09-19T01:58:50;12.80;;;9.80;;
48897;SDS011;34713;50.038;20.000;2023-09-19T02:01:01;13.70;;;10.20;;
48897;SDS011;34713;50.038;20.000;2023-09-19T02:03:37;13.70;;;9.50;;
48897;SDS011;34713;50.038;20.000;2023-09-19T02:06:22;13.40;;;9.50;;
48897;SDS011;34713;50.038;20.000;2023-09-19T02:09:01;12.00;;;9.90;;
48897;SDS011;34713;50.038;20.000;2023-09-19T02:11:29;11.40;;;9.60;;
48897;SDS011;34713;50.038;20.000;2023-09-19T02:13:58;11.10;;;8.90;;
48897;SDS011;34713;50.038;20.000;2023-09-19T02:16:26;11.80;;;9.30;;
48897;SDS011;34713;50.038;20.000;2023-09-19T02:19:01;10.90;;;9.00;;
48897;SDS011;34713;50.038;20.000;2023-09-19T02:21:39;13.20;;;9.50;;
48897;SDS011;34713;50.038;20.000;2023-09-19T02:24:26;12.60;;;9.10;;
48897;SDS011;34713;50.038;20.000;2023-09-19T02:26:53;10.80;;;9.10;;
48897;SDS011;34713;50.038;20.000;2023-09-19T02:29:25;14.40;;;9.50;;
48897;SDS011;34713;50.038;20.000;2023-09-19T02:32:04;12.30;;;8.80;;
48897;SDS011;34713;50.038;20.000;2023-09-19T02:35:01;13.60;;;9.70;;
48897;SDS011;34713;50.038;20.000;2023-09-19T02:38:34;10.10;;;8.70;;
48897;SDS011;34713;50.038;20.000;2023-09-19T02:41:00;11.70;;;9.40;;
48897;SDS011;34713;50.038;20.000;2023-09-19T02:43:30;12.10;;;9.60;;
48897;SDS011;34713;50.038;20.000;2023-09-19T02:46:06;12.10;;;9.60;;
48897;SDS011;34713;50.038;20.000;2023-09-19T02:49:14;11.20;;;9.20;;
48897;SDS011;34713;50.038;20.000;2023-09-19T02:58:13;11.20;;;8.90;;
48897;SDS011;34713;50.038;20.000;2023-09-19T03:01:15;11.70;;;9.20;;
48897;SDS011;34713;50.038;20.000;2023-09-19T03:03:42;12.00;;;9.20;;
48897;SDS011;34713;50.038;20.000;2023-09-19T03:06:09;11.30;;;10.10;;
48897;SDS011;34713;50.038;20.000;2023-09-19T03:11:52;12.10;;;10.20;;
48897;SDS011;34713;50.038;20.000;2023-09-19T03:14:39;12.90;;;9.80;;
48897;SDS011;34713;50.038;20.000;2023-09-19T03:17:29;11.20;;;9.70;;
48897;SDS011;34713;50.038;20.000;2023-09-19T03:23:22;12.80;;;10.80;;
48897;SDS011;34713;50.038;20.000;2023-09-19T03:28:47;11.90;;;9.90;;
48897;SDS011;34713;50.038;20.000;2023-09-19T03:31:17;11.80;;;10.60;;
48897;SDS011;34713;50.038;20.000;2023-09-19T03:37:03;12.70;;;10.50;;
48897;SDS011;34713;50.038;20.000;2023-09-19T03:40:10;16.80;;;10.90;;
48897;SDS011;34713;50.038;20.000;2023-09-19T03:42:53;12.20;;;10.50;;
48897;SDS011;34713;50.038;20.000;2023-09-19T03:45:22;12.70;;;11.10;;
48897;SDS011;34713;50.038;20.000;2023-09-19T03:48:12;17.80;;;11.30;;
48897;SDS011;34713;50.038;20.000;2023-09-19T03:51:02;13.80;;;9.80;;
48897;SDS011;34713;50.038;20.000;2023-09-19T03:53:51;14.60;;;10.00;;
48897;SDS011;34713;50.038;20.000;2023-09-19T03:56:21;10.70;;;9.60;;
48897;SDS011;34713;50.038;20.000;2023-09-19T04:05:05;13.70;;;9.70;;
48897;SDS011;34713;50.038;20.000;2023-09-19T04:07:41;12.50;;;10.00;;
48897;SDS011;34713;50.038;20.000;2023-09-19T04:10:13;14.50;;;10.90;;
48897;SDS011;34713;50.038;20.000;2023-09-19T04:13:21;11.30;;;10.00;;
48897;SDS011;34713;50.038;20.000;2023-09-19T04:16:10;11.90;;;10.30;;
48897;SDS011;34713;50.038;20.000;2023-09-19T04:18:40;13.40;;;10.00;;
48897;SDS011;34713;50.038;20.000;2023-09-19T04:24:37;17.60;;;10.90;;
48897;SDS011;34713;50.038;20.000;2023-09-19T04:27:23;13.80;;;10.30;;
48897;SDS011;34713;50.038;20.000;2023-09-19T04:29:56;13.10;;;10.80;;
48897;SDS011;34713;50.038;20.000;2023-09-19T04:32:28;12.20;;;10.00;;
48897;SDS011;34713;50.038;20.000;2023-09-19T04:38:15;16.10;;;12.50;;
48897;SDS011;34713;50.038;20.000;2023-09-19T04:41:07;17.60;;;13.40;;
48897;SDS011;34713;50.038;20.000;2023-09-19T04:43:36;18.70;;;15.10;;
48897;SDS011;34713;50.038;20.000;2023-09-19T04:46:27;16.20;;;13.60;;
48897;SDS011;34713;50.038;20.000;2023-09-19T04:48:53;18.40;;;15.70;;
48897;SDS011;34713;50.038;20.000;2023-09-19T04:51:24;18.90;;;14.40;;
48897;SDS011;34713;50.038;20.000;2023-09-19T04:58:04;22.50;;;14.50;;
48897;SDS011;34713;50.038;20.000;2023-09-19T05:00:31;21.90;;;16.10;;
48897;SDS011;34713;50.038;20.000;2023-09-19T05:03:04;17.00;;;14.60;;
48897;SDS011;34713;50.038;20.000;2023-09-19T05:05:38;19.10;;;15.50;;
48897;SDS011;34713;50.038;20.000;2023-09-19T05:08:09;15.10;;;13.50;;
48897;SDS011;34713;50.038;20.000;2023-09-19T05:11:02;17.80;;;13.20;;
48897;SDS011;34713;50.038;20.000;2023-09-19T05:30:41;16.40;;;14.10;;
48897;SDS011;34713;50.038;20.000;2023-09-19T05:57:41;14.60;;;12.70;;
48897;SDS011;34713;50.038;20.000;2023-09-19T06:07:33;18.00;;;12.60;;
48897;SDS011;34713;50.038;20.000;2023-09-19T06:10:03;15.30;;;13.00;;
48897;SDS011;34713;50.038;20.000;2023-09-19T06:12:40;17.10;;;12.50;;
48897;SDS011;34713;50.038;20.000;2023-09-19T06:17:52;15.60;;;11.90;;
48897;SDS011;34713;50.038;20.000;2023-09-19T06:20:25;15.50;;;11.50;;
48897;SDS011;34713;50.038;20.000;2023-09-19T06:22:53;14.70;;;11.50;;
48897;SDS011;34713;50.038;20.000;2023-09-19T06:25:20;17.20;;;11.40;;
48897;SDS011;34713;50.038;20.000;2023-09-19T06:27:48;17.20;;;11.90;;
48897;SDS011;34713;50.038;20.000;2023-09-19T06:30:28;15.50;;;11.50;;
48897;SDS011;34713;50.038;20.000;2023-09-19T06:32:56;14.80;;;11.80;;
48897;SDS011;34713;50.038;20.000;2023-09-19T06:35:26;14.70;;;11.80;;
48897;SDS011;34713;50.038;20.000;2023-09-19T06:38:01;16.00;;;12.00;;
48897;SDS011;34713;50.038;20.000;2023-09-19T06:40:31;14.50;;;10.70;;
48897;SDS011;34713;50.038;20.000;2023-09-19T06:43:00;14.30;;;11.00;;
48897;SDS011;34713;50.038;20.000;2023-09-19T06:48:34;17.40;;;11.60;;
48897;SDS011;34713;50.038;20.000;2023-09-19T06:51:00;14.10;;;11.40;;
48897;SDS011;34713;50.038;20.000;2023-09-19T06:53:32;14.10;;;11.60;;
48897;SDS011;34713;50.038;20.000;2023-09-19T06:56:01;12.40;;;10.80;;
48897;SDS011;34713;50.038;20.000;2023-09-19T06:58:51;12.70;;;10.90;;
48897;SDS011;34713;50.038;20.000;2023-09-19T07:01:50;14.30;;;10.80;;
48897;SDS011;34713;50.038;20.000;2023-09-19T07:04:26;11.80;;;10.50;;
48897;SDS011;34713;50.038;20.000;2023-09-19T07:07:34;15.20;;;11.10;;
48897;SDS011;34713;50.038;20.000;2023-09-19T07:10:27;14.40;;;11.20;;
48897;SDS011;34713;50.038;20.000;2023-09-19T07:20:19;12.70;;;11.30;;
48897;SDS011;34713;50.038;20.000;2023-09-19T07:26:32;13.30;;;11.30;;
48897;SDS011;34713;50.038;20.000;2023-09-19T07:30:09;12.10;;;10.20;;
48897;SDS011;34713;50.038;20.000;2023-09-19T07:35:50;13.30;;;10.70;;
48897;SDS011;34713;50.038;20.000;2023-09-19T07:38:40;11.00;;;9.90;;
48897;SDS011;34713;50.038;20.000;2023-09-19T07:41:37;14.80;;;11.30;;
48897;SDS011;34713;50.038;20.000;2023-09-19T07:44:34;10.90;;;9.80;;
48897;SDS011;34713;50.038;20.000;2023-09-19T07:47:24;11.20;;;9.80;;
48897;SDS011;34713;50.038;20.000;2023-09-19T07:50:14;10.90;;;9.80;;
48897;SDS011;34713;50.038;20.000;2023-09-19T07:53:17;12.40;;;9.90;;
48897;SDS011;34713;50.038;20.000;2023-09-19T07:55:47;11.60;;;10.20;;
48897;SDS011;34713;50.038;20.000;2023-09-19T07:58:25;12.40;;;11.10;;
48897;SDS011;34713;50.038;20.000;2023-09-19T08:01:32;11.20;;;10.00;;
48897;SDS011;34713;50.038;20.000;2023-09-19T08:04:33;10.50;;;9.40;;
48897;SDS011;34713;50.038;20.000;2023-09-19T08:08:01;12.40;;;10.00;;
48897;SDS011;34713;50.038;20.000;2023-09-19T08:10:56;12.40;;;9.50;;
48897;SDS011;34713;50.038;20.000;2023-09-19T08:14:03;8.30;;;7.50;;
48897;SDS011;34713;50.038;20.000;2023-09-19T08:16:41;6.90;;;5.90;;
48897;SDS011;34713;50.038;20.000;2023-09-19T08:23:04;5.30;;;4.80;;
48897;SDS011;34713;50.038;20.000;2023-09-19T08:25:46;6.60;;;5.50;;
48897;SDS011;34713;50.038;20.000;2023-09-19T08:31:42;6.80;;;4.50;;
48897;SDS011;34713;50.038;20.000;2023-09-19T08:34:16;5.90;;;5.30;;
48897;SDS011;34713;50.038;20.000;2023-09-19T08:36:49;5.90;;;3.90;;
48897;SDS011;34713;50.038;20.000;2023-09-19T08:40:17;5.30;;;3.70;;
48897;SDS011;34713;50.038;20.000;2023-09-19T09:00:31;4.40;;;4.00;;
48897;SDS011;34713;50.038;20.000;2023-09-19T09:10:01;6.30;;;4.60;;
48897;SDS011;34713;50.038;20.000;2023-09-19T09:16:36;5.10;;;3.50;;
48897;SDS011;34713;50.038;20.000;2023-09-19T09:19:44;3.90;;;3.10;;
48897;SDS011;34713;50.038;20.000;2023-09-19T09:26:17;3.40;;;2.60;;
48897;SDS011;34713;50.038;20.000;2023-09-19T09:39:56;5.10;;;3.50;;
48897;SDS011;34713;50.038;20.000;2023-09-19T09:43:11;4.40;;;3.20;;
48897;SDS011;34713;50.038;20.000;2023-09-19T09:49:44;6.00;;;3.70;;
48897;SDS011;34713;50.038;20.000;2023-09-19T09:53:15;6.20;;;3.50;;
48897;SDS011;34713;50.038;20.000;2023-09-19T09:59:51;6.60;;;3.80;;
48897;SDS011;34713;50.038;20.000;2023-09-19T10:02:44;4.70;;;3.40;;
48897;SDS011;34713;50.038;20.000;2023-09-19T10:06:13;5.70;;;3.50;;
48897;SDS011;34713;50.038;20.000;2023-09-19T10:09:08;5.80;;;3.80;;
48897;SDS011;34713;50.038;20.000;2023-09-19T10:12:13;5.70;;;3.50;;
48897;SDS011;34713;50.038;20.000;2023-09-19T10:15:22;7.40;;;4.10;;
48897;SDS011;34713;50.038;20.000;2023-09-19T10:25:46;5.40;;;3.40;;
48897;SDS011;34713;50.038;20.000;2023-09-19T10:42:40;6.90;;;3.20;;
48897;SDS011;34713;50.038;20.000;2023-09-19T11:16:20;5.70;;;3.20;;
48897;SDS011;34713;50.038;20.000;2023-09-19T11:27:38;3.90;;;2.80;;
48897;SDS011;34713;50.038;20.000;2023-09-19T11:50:00;5.20;;;3.10;;
48897;SDS011;34713;50.038;20.000;2023-09-19T11:56:37;7.10;;;2.80;;
48897;SDS011;34713;50.038;20.000;2023-09-19T12:27:29;6.10;;;2.60;;
48897;SDS011;34713;50.038;20.000;2023-09-19T12:43:52;5.30;;;2.60;;
48897;SDS011;34713;50.038;20.000;2023-09-19T12:46:37;6.10;;;2.50;;
48897;SDS011;34713;50.038;20.000;2023-09-19T12:52:49;5.00;;;2.70;;
48897;SDS011;34713;50.038;20.000;2023-09-19T12:55:47;7.40;;;2.80;;
48897;SDS011;34713;50.038;20.000;2023-09-19T12:58:57;5.90;;;2.90;;
48897;SDS011;34713;50.038;20.000;2023-09-19T13:01:36;4.30;;;2.60;;
48897;SDS011;34713;50.038;20.000;2023-09-19T13:06:47;4.60;;;2.70;;
48897;SDS011;34713;50.038;20.000;2023-09-19T13:09:15;5.00;;;2.70;;
48897;SDS011;34713;50.038;20.000;2023-09-19T13:11:52;7.40;;;3.60;;
48897;SDS011;34713;50.038;20.000;2023-09-19T13:14:22;4.30;;;3.10;;
48897;SDS011;34713;50.038;20.000;2023-09-19T13:16:54;5.80;;;3.10;;
48897;SDS011;34713;50.038;20.000;2023-09-19T13:22:02;5.50;;;2.70;;
48897;SDS011;34713;50.038;20.000;2023-09-19T13:24:29;5.30;;;2.90;;
48897;SDS011;34713;50.038;20.000;2023-09-19T13:26:57;4.20;;;2.70;;
48897;SDS011;34713;50.038;20.000;2023-09-19T13:29:23;4.00;;;2.80;;
48897;SDS011;34713;50.038;20.000;2023-09-19T13:32:03;5.30;;;3.60;;
48897;SDS011;34713;50.038;20.000;2023-09-19T13:37:24;4.50;;;3.10;;
48897;SDS011;34713;50.038;20.000;2023-09-19T13:39:56;7.30;;;2.90;;
48897;SDS011;34713;50.038;20.000;2023-09-19T13:42:28;4.00;;;2.80;;
48897;SDS011;34713;50.038;20.000;2023-09-19T13:45:05;3.50;;;2.80;;
48897;SDS011;34713;50.038;20.000;2023-09-19T13:47:33;3.70;;;2.80;;
48897;SDS011;34713;50.038;20.000;2023-09-19T13:50:02;4.60;;;3.10;;
48897;SDS011;34713;50.038;20.000;2023-09-19T13:52:31;4.40;;;3.00;;
48897;SDS011;34713;50.038;20.000;2023-09-19T13:55:03;8.40;;;3.40;;
48897;SDS011;34713;50.038;20.000;2023-09-19T13:57:33;6.90;;;3.30;;
48897;SDS011;34713;50.038;20.000;2023-09-19T14:00:02;9.90;;;3.20;;
48897;SDS011;34713;50.038;20.000;2023-09-19T14:02:52;4.80;;;3.20;;
48897;SDS011;34713;50.038;20.000;2023-09-19T14:05:22;5.10;;;3.20;;
48897;SDS011;34713;50.038;20.000;2023-09-19T14:08:00;7.20;;;3.30;;
48897;SDS011;34713;50.038;20.000;2023-09-19T14:13:36;7.10;;;3.20;;
48897;SDS011;34713;50.038;20.000;2023-09-19T14:16:32;7.00;;;3.70;;
48897;SDS011;34713;50.038;20.000;2023-09-19T14:19:27;6.40;;;3.20;;
48897;SDS011;34713;50.038;20.000;2023-09-19T14:24:58;5.70;;;3.30;;
48897;SDS011;34713;50.038;20.000;2023-09-19T14:27:30;5.50;;;3.20;;
48897;SDS011;34713;50.038;20.000;2023-09-19T14:30:10;4.60;;;3.00;;
48897;SDS011;34713;50.038;20.000;2023-09-19T14:36:50;6.60;;;3.50;;
48897;SDS011;34713;50.038;20.000;2023-09-19T14:39:52;4.90;;;3.30;;
48897;SDS011;34713;50.038;20.000;2023-09-19T14:49:01;6.40;;;3.40;;
48897;SDS011;34713;50.038;20.000;2023-09-19T14:51:50;5.40;;;3.40;;
48897;SDS011;34713;50.038;20.000;2023-09-19T14:54:20;6.10;;;3.50;;
48897;SDS011;34713;50.038;20.000;2023-09-19T15:03:21;6.50;;;3.40;;
48897;SDS011;34713;50.038;20.000;2023-09-19T15:09:07;5.30;;;3.40;;
48897;SDS011;34713;50.038;20.000;2023-09-19T15:11:47;4.80;;;3.30;;
48897;SDS011;34713;50.038;20.000;2023-09-19T15:14:30;7.40;;;3.60;;
48897;SDS011;34713;50.038;20.000;2023-09-19T15:29:37;8.90;;;4.10;;
48897;SDS011;34713;50.038;20.000;2023-09-19T15:32:22;5.80;;;3.70;;
48897;SDS011;34713;50.038;20.000;2023-09-19T15:35:10;5.80;;;3.30;;
48897;SDS011;34713;50.038;20.000;2023-09-19T15:37:43;7.60;;;3.60;;
48897;SDS011;34713;50.038;20.000;2023-09-19T15:40:10;5.10;;;3.50;;
48897;SDS011;34713;50.038;20.000;2023-09-19T15:42:41;6.70;;;3.50;;
48897;SDS011;34713;50.038;20.000;2023-09-19T15:45:29;5.60;;;3.00;;
48897;SDS011;34713;50.038;20.000;2023-09-19T15:50:47;7.10;;;3.30;;
48897;SDS011;34713;50.038;20.000;2023-09-19T15:53:43;8.60;;;3.60;;
48897;SDS011;34713;50.038;20.000;2023-09-19T15:56:13;5.70;;;3.10;;
48897;SDS011;34713;50.038;20.000;2023-09-19T15:58:41;4.80;;;3.00;;
48897;SDS011;34713;50.038;20.000;2023-09-19T16:01:10;5.90;;;3.10;;
48897;SDS011;34713;50.038;20.000;2023-09-19T16:03:46;6.10;;;2.80;;
48897;SDS011;34713;50.038;20.000;2023-09-19T16:06:23;4.20;;;3.20;;
48897;SDS011;34713;50.038;20.000;2023-09-19T16:08:53;4.90;;;2.90;;
48897;SDS011;34713;50.038;20.000;2023-09-19T16:11:48;3.40;;;2.70;;
48897;SDS011;34713;50.038;20.000;2023-09-19T16:14:20;5.10;;;2.80;;
48897;SDS011;34713;50.038;20.000;2023-09-19T16:16:47;6.00;;;3.50;;
48897;SDS011;34713;50.038;20.000;2023-09-19T16:19:19;7.90;;;3.10;;
48897;SDS011;34713;50.038;20.000;2023-09-19T16:28:36;5.30;;;2.90;;
48897;SDS011;34713;50.038;20.000;2023-09-19T16:31:43;5.10;;;2.60;;
48897;SDS011;34713;50.038;20.000;2023-09-19T16:37:33;5.20;;;2.80;;
48897;SDS011;34713;50.038;20.000;2023-09-19T16:40:33;4.30;;;2.70;;
48897;SDS011;34713;50.038;20.000;2023-09-19T16:47:10;4.20;;;2.80;;
48897;SDS011;34713;50.038;20.000;2023-09-19T17:00:37;9.50;;;4.00;;
48897;SDS011;34713;50.038;20.000;2023-09-19T17:26:44;9.10;;;3.60;;
48897;SDS011;34713;50.038;20.000;2023-09-19T17:29:51;5.40;;;3.40;;
48897;SDS011;34713;50.038;20.000;2023-09-19T17:32:18;6.50;;;3.30;;
48897;SDS011;34713;50.038;20.000;2023-09-19T17:34:46;6.20;;;3.20;;
48897;SDS011;34713;50.038;20.000;2023-09-19T17:40:25;6.10;;;3.50;;
48897;SDS011;34713;50.038;20.000;2023-09-19T17:43:14;5.90;;;3.50;;
48897;SDS011;34713;50.038;20.000;2023-09-19T17:45:44;6.40;;;3.80;;
48897;SDS011;34713;50.038;20.000;2023-09-19T17:48:14;5.70;;;3.30;;
48897;SDS011;34713;50.038;20.000;2023-09-19T17:51:11;5.20;;;3.60;;
48897;SDS011;34713;50.038;20.000;2023-09-19T17:53:58;7.90;;;3.40;;
48897;SDS011;34713;50.038;20.000;2023-09-19T17:59:49;6.40;;;3.70;;
48897;SDS011;34713;50.038;20.000;2023-09-19T18:02:44;8.10;;;3.50;;
48897;SDS011;34713;50.038;20.000;2023-09-19T18:05:39;6.70;;;2.90;;
48897;SDS011;34713;50.038;20.000;2023-09-19T18:13:44;5.50;;;2.90;;
48897;SDS011;34713;50.038;20.000;2023-09-19T18:16:39;4.70;;;3.70;;
48897;SDS011;34713;50.038;20.000;2023-09-19T18:19:31;8.60;;;3.70;;
48897;SDS011;34713;50.038;20.000;2023-09-19T18:22:08;4.60;;;2.80;;
48897;SDS011;34713;50.038;20.000;2023-09-19T18:24:37;6.20;;;3.20;;
48897;SDS011;34713;50.038;20.000;2023-09-19T18:27:08;4.60;;;3.20;;
48897;SDS011;34713;50.038;20.000;2023-09-19T18:33:13;5.80;;;2.90;;
48897;SDS011;34713;50.038;20.000;2023-09-19T18:36:06;4.00;;;2.90;;
48897;SDS011;34713;50.038;20.000;2023-09-19T18:41:46;4.10;;;2.40;;
48897;SDS011;34713;50.038;20.000;2023-09-19T18:44:16;5.70;;;2.20;;
48897;SDS011;34713;50.038;20.000;2023-09-19T18:47:12;4.10;;;2.40;;
48897;SDS011;34713;50.038;20.000;2023-09-19T18:50:09;6.40;;;3.00;;
48897;SDS011;34713;50.038;20.000;2023-09-19T18:53:19;3.60;;;2.80;;
48897;SDS011;34713;50.038;20.000;2023-09-19T18:55:49;7.30;;;2.30;;
48897;SDS011;34713;50.038;20.000;2023-09-19T18:58:42;2.80;;;1.90;;
48897;SDS011;34713;50.038;20.000;2023-09-19T19:01:10;4.40;;;2.70;;
48897;SDS011;34713;50.038;20.000;2023-09-19T19:03:39;5.30;;;2.40;;
48897;SDS011;34713;50.038;20.000;2023-09-19T19:09:35;5.30;;;2.30;;
48897;SDS011;34713;50.038;20.000;2023-09-19T19:12:23;4.20;;;2.60;;
48897;SDS011;34713;50.038;20.000;2023-09-19T19:15:13;5.20;;;2.70;;
48897;SDS011;34713;50.038;20.000;2023-09-19T19:17:44;4.10;;;3.00;;
48897;SDS011;34713;50.038;20.000;2023-09-19T19:20:16;7.30;;;2.80;;
48897;SDS011;34713;50.038;20.000;2023-09-19T19:22:50;4.70;;;2.70;;
48897;SDS011;34713;50.038;20.000;2023-09-19T19:25:29;7.40;;;3.00;;
48897;SDS011;34713;50.038;20.000;2023-09-19T19:27:56;6.00;;;3.30;;
48897;SDS011;34713;50.038;20.000;2023-09-19T19:30:26;5.50;;;3.60;;
48897;SDS011;34713;50.038;20.000;2023-09-19T19:33:13;4.20;;;3.00;;
48897;SDS011;34713;50.038;20.000;2023-09-19T19:36:02;5.00;;;2.90;;
48897;SDS011;34713;50.038;20.000;2023-09-19T19:38:35;7.70;;;3.30;;
48897;SDS011;34713;50.038;20.000;2023-09-19T19:41:12;6.60;;;3.00;;
48897;SDS011;34713;50.038;20.000;2023-09-19T19:43:39;4.70;;;2.90;;
48897;SDS011;34713;50.038;20.000;2023-09-19T19:46:09;5.90;;;3.10;;
48897;SDS011;34713;50.038;20.000;2023-09-19T19:48:39;6.80;;;3.30;;
48897;SDS011;34713;50.038;20.000;2023-09-19T19:51:10;8.00;;;3.40;;
48897;SDS011;34713;50.038;20.000;2023-09-19T19:53:54;5.50;;;3.80;;
48897;SDS011;34713;50.038;20.000;2023-09-19T19:56:22;4.60;;;3.20;;
48897;SDS011;34713;50.038;20.000;2023-09-19T19:59:12;10.40;;;5.50;;
48897;SDS011;34713;50.038;20.000;2023-09-19T20:01:59;6.00;;;3.70;;
48897;SDS011;34713;50.038;20.000;2023-09-19T20:08:10;5.50;;;3.60;;
48897;SDS011;34713;50.038;20.000;2023-09-19T20:17:16;3.50;;;2.90;;
48897;SDS011;34713;50.038;20.000;2023-09-19T20:19:49;5.80;;;3.50;;
48897;SDS011;34713;50.038;20.000;2023-09-19T20:22:19;4.10;;;3.00;;
48897;SDS011;34713;50.038;20.000;2023-09-19T20:24:53;5.00;;;3.20;;
48897;SDS011;34713;50.038;20.000;2023-09-19T20:27:23;6.90;;;3.30;;
48897;SDS011;34713;50.038;20.000;2023-09-19T20:29:50;6.60;;;3.70;;
48897;SDS011;34713;50.038;20.000;2023-09-19T20:32:19;7.00;;;3.70;;
48897;SDS011;34713;50.038;20.000;2023-09-19T20:34:55;4.90;;;3.50;;
48897;SDS011;34713;50.038;20.000;2023-09-19T20:37:22;6.40;;;3.80;;
48897;SDS011;34713;50.038;20.000;2023-09-19T20:42:47;5.90;;;3.10;;
48897;SDS011;34713;50.038;20.000;2023-09-19T20:48:23;5.00;;;3.10;;
48897;SDS011;34713;50.038;20.000;2023-09-19T21:00:51;5.10;;;3.70;;
48897;SDS011;34713;50.038;20.000;2023-09-19T21:06:59;5.80;;;3.40;;
48897;SDS011;34713;50.038;20.000;2023-09-19T21:09:46;4.90;;;3.90;;
48897;SDS011;34713;50.038;20.000;2023-09-19T21:12:18;5.10;;;3.30;;
48897;SDS011;34713;50.038;20.000;2023-09-19T21:14:56;7.60;;;3.60;;
48897;SDS011;34713;50.038;20.000;2023-09-19T21:17:39;5.70;;;3.80;;
48897;SDS011;34713;50.038;20.000;2023-09-19T21:32:59;11.20;;;4.50;;
48897;SDS011;34713;50.038;20.000;2023-09-19T21:35:26;8.90;;;4.10;;
48897;SDS011;34713;50.038;20.000;2023-09-19T21:37:53;9.00;;;3.50;;
48897;SDS011;34713;50.038;20.000;2023-09-19T21:40:42;6.20;;;3.90;;
48897;SDS011;34713;50.038;20.000;2023-09-19T21:47:12;9.10;;;4.20;;
48897;SDS011;34713;50.038;20.000;2023-09-19T21:53:34;6.80;;;4.10;;
48897;SDS011;34713;50.038;20.000;2023-09-19T21:56:22;8.80;;;4.30;;
48897;SDS011;34713;50.038;20.000;2023-09-19T21:58:52;7.20;;;3.90;;
48897;SDS011;34713;50.038;20.000;2023-09-19T22:01:20;8.10;;;4.80;;
48897;SDS011;34713;50.038;20.000;2023-09-19T22:03:54;5.60;;;3.70;;
48897;SDS011;34713;50.038;20.000;2023-09-19T22:06:49;8.60;;;3.90;;
48897;SDS011;34713;50.038;20.000;2023-09-19T22:09:21;5.50;;;4.10;;
48897;SDS011;34713;50.038;20.000;2023-09-19T22:12:01;6.00;;;3.90;;
48897;SDS011;34713;50.038;20.000;2023-09-19T22:14:29;8.20;;;4.20;;
48897;SDS011;34713;50.038;20.000;2023-09-19T22:16:56;6.10;;;4.10;;
48897;SDS011;34713;50.038;20.000;2023-09-19T22:29:19;6.80;;;4.50;;
48897;SDS011;34713;50.038;20.000;2023-09-19T22:31:47;7.60;;;4.50;;
48897;SDS011;34713;50.038;20.000;2023-09-19T22:34:54;5.20;;;4.00;;
48897;SDS011;34713;50.038;20.000;2023-09-19T22:37:57;8.10;;;4.00;;
48897;SDS011;34713;50.038;20.000;2023-09-19T22:40:27;7.60;;;4.50;;
48897;SDS011;34713;50.038;20.000;2023-09-19T22:43:19;6.30;;;4.00;;
48897;SDS011;34713;50.038;20.000;2023-09-19T22:46:05;5.90;;;4.20;;
48897;SDS011;34713;50.038;20.000;2023-09-19T22:49:03;6.00;;;4.00;;
48897;SDS011;34713;50.038;20.000;2023-09-19T22:54:43;5.10;;;3.60;;
48897;SDS011;34713;50.038;20.000;2023-09-19T23:00:50;4.50;;;3.70;;
48897;SDS011;34713;50.038;20.000;2023-09-19T23:04:12;9.20;;;4.20;;
48897;SDS011;34713;50.038;20.000;2023-09-19T23:07:20;7.70;;;3.70;;
48897;SDS011;34713;50.038;20.000;2023-09-19T23:09:52;8.80;;;3.90;;
48897;SDS011;34713;50.038;20.000;2023-09-19T23:12:21;10.20;;;4.00;;
48897;SDS011;34713;50.038;20.000;2023-09-19T23:14:53;7.80;;;3.80;;
48897;SDS011;34713;50.038;20.000;2023-09-19T23:17:27;10.50;;;4.10;;
48897;SDS011;34713;50.038;20.000;2023-09-19T23:19:57;7.90;;;3.50;;
48897;SDS011;34713;50.038;20.000;2023-09-19T23:25:24;6.40;;;3.90;;
48897;SDS011;34713;50.038;20.000;2023-09-19T23:28:01;9.50;;;3.80;;
48897;SDS011;34713;50.038;20.000;2023-09-19T23:30:58;7.70;;;3.70;;
48897;SDS011;34713;50.038;20.000;2023-09-19T23:33:34;9.60;;;3.60;;
48897;SDS011;34713;50.038;20.000;2023-09-19T23:39:48;7.10;;;4.00;;
48897;SDS011;34713;50.038;20.000;2023-09-19T23:42:17;5.80;;;3.80;;
48897;SDS011;34713;50.038;20.000;2023-09-19T23:44:57;8.40;;;5.10;;
48897;SDS011;34713;50.038;20.000;2023-09-19T23:47:37;7.30;;;3.60;;
48897;SDS011;34713;50.038;20.000;2023-09-19T23:50:12;7.60;;;4.10;;
48897;SDS011;34713;50.038;20.000;2023-09-19T23:53:26;5.70;;;3.70;;
48897;SDS011;34713;50.038;20.000;2023-09-19T23:56:35;6.80;;;3.70;;
48897;SDS011;34713;50.038;20.000;2023-09-19T23:59:18;8.10;;;4.50;;
